sensor_id;sensor_type;location;lat;lon;timestamp;P1;durP1;ratioP1;P2;durP2;ratioP2
59950;SDS011;45812;53.540;9.774;2023-03-25T00:01:33;3.33;;;2.42;;
59950;SDS011;45812;53.540;9.774;2023-03-25T00:03:59;7.90;;;3.50;;
59950;SDS011;45812;53.540;9.774;2023-03-25T00:06:28;5.10;;;3.03;;
59950;SDS011;45812;53.540;9.774;2023-03-25T00:08:53;8.68;;;3.10;;
59950;SDS011;45812;53.540;9.774;2023-03-25T00:11:19;7.50;;;3.45;;
59950;SDS011;45812;53.540;9.774;2023-03-25T00:13:45;9.50;;;3.70;;
59950;SDS011;45812;53.540;9.774;2023-03-25T00:16:12;6.40;;;3.33;;
59950;SDS011;45812;53.540;9.774;2023-03-25T00:18:38;9.73;;;3.83;;
59950;SDS011;45812;53.540;9.774;2023-03-25T00:21:04;8.20;;;4.00;;
59950;SDS011;45812;53.540;9.774;2023-03-25T00:23:34;5.05;;;2.60;;
59950;SDS011;45812;53.540;9.774;2023-03-25T00:26:00;10.13;;;3.97;;
59950;SDS011;45812;53.540;9.774;2023-03-25T00:28:27;9.55;;;3.92;;
59950;SDS011;45812;53.540;9.774;2023-03-25T00:30:57;8.25;;;3.80;;
59950;SDS011;45812;53.540;9.774;2023-03-25T00:33:24;5.43;;;3.60;;
59950;SDS011;45812;53.540;9.774;2023-03-25T00:35:50;11.32;;;3.97;;
59950;SDS011;45812;53.540;9.774;2023-03-25T00:38:16;8.05;;;3.85;;
59950;SDS011;45812;53.540;9.774;2023-03-25T00:40:42;10.65;;;4.38;;
59950;SDS011;45812;53.540;9.774;2023-03-25T00:43:08;10.65;;;4.35;;
59950;SDS011;45812;53.540;9.774;2023-03-25T00:45:34;13.18;;;4.18;;
59950;SDS011;45812;53.540;9.774;2023-03-25T00:48:00;7.55;;;3.63;;
59950;SDS011;45812;53.540;9.774;2023-03-25T00:50:25;11.57;;;3.53;;
59950;SDS011;45812;53.540;9.774;2023-03-25T00:52:50;11.52;;;4.97;;
59950;SDS011;45812;53.540;9.774;2023-03-25T00:55:17;8.98;;;3.83;;
59950;SDS011;45812;53.540;9.774;2023-03-25T00:57:42;4.88;;;2.72;;
59950;SDS011;45812;53.540;9.774;2023-03-25T01:00:09;4.85;;;3.05;;
59950;SDS011;45812;53.540;9.774;2023-03-25T01:02:36;10.40;;;3.58;;
59950;SDS011;45812;53.540;9.774;2023-03-25T01:05:03;7.40;;;3.55;;
59950;SDS011;45812;53.540;9.774;2023-03-25T01:07:29;7.55;;;4.05;;
59950;SDS011;45812;53.540;9.774;2023-03-25T01:09:56;4.32;;;3.00;;
59950;SDS011;45812;53.540;9.774;2023-03-25T01:12:22;3.95;;;3.17;;
59950;SDS011;45812;53.540;9.774;2023-03-25T01:14:48;10.75;;;3.30;;
59950;SDS011;45812;53.540;9.774;2023-03-25T01:17:14;7.60;;;3.72;;
59950;SDS011;45812;53.540;9.774;2023-03-25T01:19:39;2.60;;;2.22;;
59950;SDS011;45812;53.540;9.774;2023-03-25T01:22:04;6.60;;;3.15;;
59950;SDS011;45812;53.540;9.774;2023-03-25T01:24:30;8.13;;;4.25;;
59950;SDS011;45812;53.540;9.774;2023-03-25T01:26:55;7.65;;;3.25;;
59950;SDS011;45812;53.540;9.774;2023-03-25T01:29:21;10.27;;;3.33;;
59950;SDS011;45812;53.540;9.774;2023-03-25T01:31:46;6.43;;;3.15;;
59950;SDS011;45812;53.540;9.774;2023-03-25T01:34:12;5.35;;;3.50;;
59950;SDS011;45812;53.540;9.774;2023-03-25T01:36:39;10.32;;;3.42;;
59950;SDS011;45812;53.540;9.774;2023-03-25T01:39:05;6.40;;;3.60;;
59950;SDS011;45812;53.540;9.774;2023-03-25T01:41:32;5.40;;;3.40;;
59950;SDS011;45812;53.540;9.774;2023-03-25T01:44:01;12.27;;;3.53;;
59950;SDS011;45812;53.540;9.774;2023-03-25T01:46:26;5.10;;;2.60;;
59950;SDS011;45812;53.540;9.774;2023-03-25T01:48:52;11.93;;;3.50;;
59950;SDS011;45812;53.540;9.774;2023-03-25T01:51:19;11.13;;;3.53;;
59950;SDS011;45812;53.540;9.774;2023-03-25T01:53:48;5.95;;;2.92;;
59950;SDS011;45812;53.540;9.774;2023-03-25T01:56:17;10.40;;;3.67;;
59950;SDS011;45812;53.540;9.774;2023-03-25T01:58:46;6.72;;;3.55;;
59950;SDS011;45812;53.540;9.774;2023-03-25T02:01:12;10.30;;;3.08;;
59950;SDS011;45812;53.540;9.774;2023-03-25T02:03:41;7.55;;;3.58;;
59950;SDS011;45812;53.540;9.774;2023-03-25T02:06:20;10.93;;;3.63;;
59950;SDS011;45812;53.540;9.774;2023-03-25T02:08:57;6.20;;;2.97;;
59950;SDS011;45812;53.540;9.774;2023-03-25T02:11:25;8.20;;;3.47;;
59950;SDS011;45812;53.540;9.774;2023-03-25T02:13:53;7.32;;;3.53;;
59950;SDS011;45812;53.540;9.774;2023-03-25T02:16:24;6.57;;;2.88;;
59950;SDS011;45812;53.540;9.774;2023-03-25T02:25:12;7.10;;;3.05;;
59950;SDS011;45812;53.540;9.774;2023-03-25T02:30:52;11.73;;;3.95;;
59950;SDS011;45812;53.540;9.774;2023-03-25T02:36:11;2.20;;;1.98;;
59950;SDS011;45812;53.540;9.774;2023-03-25T02:38:41;9.77;;;3.55;;
59950;SDS011;45812;53.540;9.774;2023-03-25T02:41:13;6.20;;;2.70;;
59950;SDS011;45812;53.540;9.774;2023-03-25T02:43:54;8.23;;;4.00;;
59950;SDS011;45812;53.540;9.774;2023-03-25T02:46:25;9.07;;;3.45;;
59950;SDS011;45812;53.540;9.774;2023-03-25T02:48:55;6.72;;;2.70;;
59950;SDS011;45812;53.540;9.774;2023-03-25T02:51:32;5.70;;;2.42;;
59950;SDS011;45812;53.540;9.774;2023-03-25T02:54:08;5.03;;;2.85;;
59950;SDS011;45812;53.540;9.774;2023-03-25T02:56:36;11.10;;;3.38;;
59950;SDS011;45812;53.540;9.774;2023-03-25T02:59:04;3.15;;;2.53;;
59950;SDS011;45812;53.540;9.774;2023-03-25T03:01:32;8.13;;;3.05;;
59950;SDS011;45812;53.540;9.774;2023-03-25T03:03:58;4.95;;;2.10;;
59950;SDS011;45812;53.540;9.774;2023-03-25T03:06:24;3.08;;;1.92;;
59950;SDS011;45812;53.540;9.774;2023-03-25T03:11:19;10.80;;;2.97;;
59950;SDS011;45812;53.540;9.774;2023-03-25T03:19:43;5.32;;;2.50;;
59950;SDS011;45812;53.540;9.774;2023-03-25T03:22:20;6.68;;;2.80;;
59950;SDS011;45812;53.540;9.774;2023-03-25T03:25:09;5.38;;;2.63;;
59950;SDS011;45812;53.540;9.774;2023-03-25T03:28:04;9.52;;;3.38;;
59950;SDS011;45812;53.540;9.774;2023-03-25T03:30:41;4.22;;;2.95;;
59950;SDS011;45812;53.540;9.774;2023-03-25T03:33:14;8.10;;;3.13;;
59950;SDS011;45812;53.540;9.774;2023-03-25T03:35:59;2.67;;;2.13;;
59950;SDS011;45812;53.540;9.774;2023-03-25T03:38:50;5.05;;;2.78;;
59950;SDS011;45812;53.540;9.774;2023-03-25T03:41:18;6.07;;;2.83;;
59950;SDS011;45812;53.540;9.774;2023-03-25T03:43:48;3.00;;;2.33;;
59950;SDS011;45812;53.540;9.774;2023-03-25T03:46:19;7.90;;;2.25;;
59950;SDS011;45812;53.540;9.774;2023-03-25T03:48:59;2.60;;;2.00;;
59950;SDS011;45812;53.540;9.774;2023-03-25T03:51:29;3.47;;;2.47;;
59950;SDS011;45812;53.540;9.774;2023-03-25T03:54:00;5.75;;;2.75;;
59950;SDS011;45812;53.540;9.774;2023-03-25T03:56:40;3.67;;;2.20;;
59950;SDS011;45812;53.540;9.774;2023-03-25T03:59:12;6.78;;;2.28;;
59950;SDS011;45812;53.540;9.774;2023-03-25T04:01:45;4.68;;;1.88;;
59950;SDS011;45812;53.540;9.774;2023-03-25T04:04:18;2.35;;;1.42;;
59950;SDS011;45812;53.540;9.774;2023-03-25T04:07:00;3.42;;;2.53;;
59950;SDS011;45812;53.540;9.774;2023-03-25T04:12:25;3.67;;;2.30;;
59950;SDS011;45812;53.540;9.774;2023-03-25T04:14:53;5.43;;;2.65;;
59950;SDS011;45812;53.540;9.774;2023-03-25T04:17:20;5.05;;;2.20;;
59950;SDS011;45812;53.540;9.774;2023-03-25T04:19:46;5.45;;;2.60;;
59950;SDS011;45812;53.540;9.774;2023-03-25T04:22:12;8.02;;;2.45;;
59950;SDS011;45812;53.540;9.774;2023-03-25T04:24:41;7.85;;;2.13;;
59950;SDS011;45812;53.540;9.774;2023-03-25T04:27:08;3.00;;;2.00;;
59950;SDS011;45812;53.540;9.774;2023-03-25T04:29:33;5.20;;;2.83;;
59950;SDS011;45812;53.540;9.774;2023-03-25T04:31:59;6.55;;;2.97;;
59950;SDS011;45812;53.540;9.774;2023-03-25T04:34:25;6.75;;;3.00;;
59950;SDS011;45812;53.540;9.774;2023-03-25T04:36:51;7.95;;;2.50;;
59950;SDS011;45812;53.540;9.774;2023-03-25T04:39:18;4.13;;;2.58;;
59950;SDS011;45812;53.540;9.774;2023-03-25T04:41:48;3.25;;;2.35;;
59950;SDS011;45812;53.540;9.774;2023-03-25T04:44:15;6.70;;;2.67;;
59950;SDS011;45812;53.540;9.774;2023-03-25T04:46:41;6.65;;;2.78;;
59950;SDS011;45812;53.540;9.774;2023-03-25T04:49:08;8.85;;;2.85;;
59950;SDS011;45812;53.540;9.774;2023-03-25T04:51:43;9.82;;;2.75;;
59950;SDS011;45812;53.540;9.774;2023-03-25T04:54:09;5.07;;;2.92;;
59950;SDS011;45812;53.540;9.774;2023-03-25T04:56:35;5.40;;;2.42;;
59950;SDS011;45812;53.540;9.774;2023-03-25T04:59:00;9.45;;;2.53;;
59950;SDS011;45812;53.540;9.774;2023-03-25T05:01:27;4.55;;;2.20;;
59950;SDS011;45812;53.540;9.774;2023-03-25T05:03:59;4.45;;;2.70;;
59950;SDS011;45812;53.540;9.774;2023-03-25T05:06:29;5.10;;;2.70;;
59950;SDS011;45812;53.540;9.774;2023-03-25T05:08:59;5.75;;;2.67;;
59950;SDS011;45812;53.540;9.774;2023-03-25T05:11:28;10.30;;;3.30;;
59950;SDS011;45812;53.540;9.774;2023-03-25T05:13:54;5.35;;;2.75;;
59950;SDS011;45812;53.540;9.774;2023-03-25T05:16:20;8.27;;;3.03;;
59950;SDS011;45812;53.540;9.774;2023-03-25T05:18:45;5.55;;;2.67;;
59950;SDS011;45812;53.540;9.774;2023-03-25T05:21:10;8.63;;;2.53;;
59950;SDS011;45812;53.540;9.774;2023-03-25T05:23:36;5.63;;;3.13;;
59950;SDS011;45812;53.540;9.774;2023-03-25T05:26:01;4.38;;;2.88;;
59950;SDS011;45812;53.540;9.774;2023-03-25T05:28:27;8.43;;;2.47;;
59950;SDS011;45812;53.540;9.774;2023-03-25T05:30:53;3.58;;;3.10;;
59950;SDS011;45812;53.540;9.774;2023-03-25T05:33:19;5.57;;;2.92;;
59950;SDS011;45812;53.540;9.774;2023-03-25T05:35:44;3.83;;;2.17;;
59950;SDS011;45812;53.540;9.774;2023-03-25T05:38:10;5.70;;;3.67;;
59950;SDS011;45812;53.540;9.774;2023-03-25T05:40:46;6.07;;;2.43;;
59950;SDS011;45812;53.540;9.774;2023-03-25T05:43:15;5.15;;;2.50;;
59950;SDS011;45812;53.540;9.774;2023-03-25T05:45:41;8.63;;;3.05;;
59950;SDS011;45812;53.540;9.774;2023-03-25T05:48:08;9.25;;;3.10;;
59950;SDS011;45812;53.540;9.774;2023-03-25T05:50:35;5.85;;;2.88;;
59950;SDS011;45812;53.540;9.774;2023-03-25T05:53:01;6.05;;;2.75;;
59950;SDS011;45812;53.540;9.774;2023-03-25T05:55:26;8.38;;;3.70;;
59950;SDS011;45812;53.540;9.774;2023-03-25T05:57:52;8.88;;;3.63;;
59950;SDS011;45812;53.540;9.774;2023-03-25T06:00:18;7.05;;;3.15;;
59950;SDS011;45812;53.540;9.774;2023-03-25T06:02:45;5.93;;;3.15;;
59950;SDS011;45812;53.540;9.774;2023-03-25T06:05:12;9.85;;;3.58;;
59950;SDS011;45812;53.540;9.774;2023-03-25T06:07:42;4.50;;;2.85;;
59950;SDS011;45812;53.540;9.774;2023-03-25T06:10:10;8.85;;;3.22;;
59950;SDS011;45812;53.540;9.774;2023-03-25T06:12:37;8.88;;;3.92;;
59950;SDS011;45812;53.540;9.774;2023-03-25T06:15:10;6.22;;;3.67;;
59950;SDS011;45812;53.540;9.774;2023-03-25T06:17:37;7.13;;;3.28;;
59950;SDS011;45812;53.540;9.774;2023-03-25T06:20:06;8.48;;;3.20;;
59950;SDS011;45812;53.540;9.774;2023-03-25T06:22:37;8.07;;;3.30;;
59950;SDS011;45812;53.540;9.774;2023-03-25T06:25:03;15.85;;;3.92;;
59950;SDS011;45812;53.540;9.774;2023-03-25T06:27:28;3.90;;;2.60;;
59950;SDS011;45812;53.540;9.774;2023-03-25T06:29:58;6.18;;;2.63;;
59950;SDS011;45812;53.540;9.774;2023-03-25T06:32:23;4.07;;;2.25;;
59950;SDS011;45812;53.540;9.774;2023-03-25T06:34:49;8.45;;;4.00;;
59950;SDS011;45812;53.540;9.774;2023-03-25T06:37:15;7.82;;;2.50;;
59950;SDS011;45812;53.540;9.774;2023-03-25T06:39:40;6.40;;;3.35;;
59950;SDS011;45812;53.540;9.774;2023-03-25T06:42:05;7.05;;;3.30;;
59950;SDS011;45812;53.540;9.774;2023-03-25T06:44:31;10.30;;;4.30;;
59950;SDS011;45812;53.540;9.774;2023-03-25T06:46:56;7.35;;;3.03;;
59950;SDS011;45812;53.540;9.774;2023-03-25T06:49:21;12.65;;;3.83;;
59950;SDS011;45812;53.540;9.774;2023-03-25T06:51:47;7.63;;;3.38;;
59950;SDS011;45812;53.540;9.774;2023-03-25T06:54:12;4.43;;;2.65;;
59950;SDS011;45812;53.540;9.774;2023-03-25T06:56:38;9.82;;;3.03;;
59950;SDS011;45812;53.540;9.774;2023-03-25T06:59:04;9.90;;;3.13;;
59950;SDS011;45812;53.540;9.774;2023-03-25T07:01:29;19.02;;;4.07;;
59950;SDS011;45812;53.540;9.774;2023-03-25T07:03:55;8.65;;;3.30;;
59950;SDS011;45812;53.540;9.774;2023-03-25T07:06:21;12.10;;;3.58;;
59950;SDS011;45812;53.540;9.774;2023-03-25T07:08:47;14.40;;;5.72;;
59950;SDS011;45812;53.540;9.774;2023-03-25T07:11:13;11.88;;;2.92;;
59950;SDS011;45812;53.540;9.774;2023-03-25T07:13:40;8.43;;;3.30;;
59950;SDS011;45812;53.540;9.774;2023-03-25T07:16:06;8.10;;;3.35;;
59950;SDS011;45812;53.540;9.774;2023-03-25T07:18:32;10.35;;;3.45;;
59950;SDS011;45812;53.540;9.774;2023-03-25T07:20:57;12.00;;;3.50;;
59950;SDS011;45812;53.540;9.774;2023-03-25T07:23:23;8.38;;;2.92;;
59950;SDS011;45812;53.540;9.774;2023-03-25T07:25:49;10.50;;;3.75;;
59950;SDS011;45812;53.540;9.774;2023-03-25T07:28:14;12.13;;;4.18;;
59950;SDS011;45812;53.540;9.774;2023-03-25T07:30:40;6.28;;;3.00;;
59950;SDS011;45812;53.540;9.774;2023-03-25T07:33:05;4.93;;;2.40;;
59950;SDS011;45812;53.540;9.774;2023-03-25T07:35:30;9.05;;;2.85;;
59950;SDS011;45812;53.540;9.774;2023-03-25T07:37:56;4.20;;;3.17;;
59950;SDS011;45812;53.540;9.774;2023-03-25T07:40:21;2.90;;;1.67;;
59950;SDS011;45812;53.540;9.774;2023-03-25T07:42:47;5.95;;;2.72;;
59950;SDS011;45812;53.540;9.774;2023-03-25T07:45:12;5.88;;;2.63;;
59950;SDS011;45812;53.540;9.774;2023-03-25T07:47:37;8.07;;;2.63;;
59950;SDS011;45812;53.540;9.774;2023-03-25T07:50:03;6.50;;;2.60;;
59950;SDS011;45812;53.540;9.774;2023-03-25T07:52:28;5.80;;;2.38;;
59950;SDS011;45812;53.540;9.774;2023-03-25T07:54:54;8.85;;;2.60;;
59950;SDS011;45812;53.540;9.774;2023-03-25T07:57:19;5.65;;;2.30;;
59950;SDS011;45812;53.540;9.774;2023-03-25T07:59:44;6.00;;;2.28;;
59950;SDS011;45812;53.540;9.774;2023-03-25T08:02:13;6.07;;;2.00;;
59950;SDS011;45812;53.540;9.774;2023-03-25T08:04:38;4.05;;;2.10;;
59950;SDS011;45812;53.540;9.774;2023-03-25T08:07:04;7.45;;;2.20;;
59950;SDS011;45812;53.540;9.774;2023-03-25T08:09:29;3.65;;;2.05;;
59950;SDS011;45812;53.540;9.774;2023-03-25T08:11:54;6.80;;;2.50;;
59950;SDS011;45812;53.540;9.774;2023-03-25T08:14:19;7.43;;;2.13;;
59950;SDS011;45812;53.540;9.774;2023-03-25T08:16:45;4.38;;;1.70;;
59950;SDS011;45812;53.540;9.774;2023-03-25T08:19:10;7.60;;;2.35;;
59950;SDS011;45812;53.540;9.774;2023-03-25T08:21:36;9.57;;;2.95;;
59950;SDS011;45812;53.540;9.774;2023-03-25T08:24:01;5.10;;;2.28;;
59950;SDS011;45812;53.540;9.774;2023-03-25T08:26:28;8.43;;;2.45;;
59950;SDS011;45812;53.540;9.774;2023-03-25T08:28:55;3.80;;;1.70;;
59950;SDS011;45812;53.540;9.774;2023-03-25T08:31:21;8.30;;;2.08;;
59950;SDS011;45812;53.540;9.774;2023-03-25T08:33:50;8.27;;;1.88;;
59950;SDS011;45812;53.540;9.774;2023-03-25T08:36:16;5.57;;;2.40;;
59950;SDS011;45812;53.540;9.774;2023-03-25T08:38:47;11.25;;;2.65;;
59950;SDS011;45812;53.540;9.774;2023-03-25T08:41:13;10.43;;;2.33;;
59950;SDS011;45812;53.540;9.774;2023-03-25T08:43:38;5.88;;;2.85;;
59950;SDS011;45812;53.540;9.774;2023-03-25T08:46:04;4.90;;;2.28;;
59950;SDS011;45812;53.540;9.774;2023-03-25T08:48:29;10.13;;;2.97;;
59950;SDS011;45812;53.540;9.774;2023-03-25T08:50:54;6.05;;;2.20;;
59950;SDS011;45812;53.540;9.774;2023-03-25T08:53:20;7.22;;;2.30;;
59950;SDS011;45812;53.540;9.774;2023-03-25T08:55:45;5.93;;;2.78;;
59950;SDS011;45812;53.540;9.774;2023-03-25T08:58:10;4.85;;;2.13;;
59950;SDS011;45812;53.540;9.774;2023-03-25T09:00:36;7.47;;;2.70;;
59950;SDS011;45812;53.540;9.774;2023-03-25T09:03:02;7.15;;;2.35;;
59950;SDS011;45812;53.540;9.774;2023-03-25T09:05:28;6.68;;;2.05;;
59950;SDS011;45812;53.540;9.774;2023-03-25T09:07:54;10.35;;;2.00;;
59950;SDS011;45812;53.540;9.774;2023-03-25T09:10:20;5.07;;;2.00;;
59950;SDS011;45812;53.540;9.774;2023-03-25T09:12:45;4.13;;;1.15;;
59950;SDS011;45812;53.540;9.774;2023-03-25T09:15:10;6.70;;;1.40;;
59950;SDS011;45812;53.540;9.774;2023-03-25T09:17:36;3.25;;;1.08;;
59950;SDS011;45812;53.540;9.774;2023-03-25T09:20:03;3.88;;;1.17;;
59950;SDS011;45812;53.540;9.774;2023-03-25T09:22:29;4.88;;;1.58;;
59950;SDS011;45812;53.540;9.774;2023-03-25T09:24:55;3.17;;;1.50;;
59950;SDS011;45812;53.540;9.774;2023-03-25T09:27:20;5.05;;;1.35;;
59950;SDS011;45812;53.540;9.774;2023-03-25T09:29:45;8.75;;;1.83;;
59950;SDS011;45812;53.540;9.774;2023-03-25T09:32:10;5.63;;;1.67;;
59950;SDS011;45812;53.540;9.774;2023-03-25T09:34:36;3.58;;;1.67;;
59950;SDS011;45812;53.540;9.774;2023-03-25T09:37:03;4.03;;;1.65;;
59950;SDS011;45812;53.540;9.774;2023-03-25T09:39:28;4.28;;;1.50;;
59950;SDS011;45812;53.540;9.774;2023-03-25T09:42:00;2.45;;;1.60;;
59950;SDS011;45812;53.540;9.774;2023-03-25T09:44:50;3.20;;;1.50;;
59950;SDS011;45812;53.540;9.774;2023-03-25T09:47:16;3.15;;;1.42;;
59950;SDS011;45812;53.540;9.774;2023-03-25T09:49:44;3.65;;;1.55;;
59950;SDS011;45812;53.540;9.774;2023-03-25T09:52:18;3.53;;;1.58;;
59950;SDS011;45812;53.540;9.774;2023-03-25T09:54:54;2.65;;;1.30;;
59950;SDS011;45812;53.540;9.774;2023-03-25T09:57:26;5.82;;;1.50;;
59950;SDS011;45812;53.540;9.774;2023-03-25T09:59:55;4.82;;;1.98;;
59950;SDS011;45812;53.540;9.774;2023-03-25T10:10:15;2.05;;;1.10;;
59950;SDS011;45812;53.540;9.774;2023-03-25T10:15:39;4.68;;;1.48;;
59950;SDS011;45812;53.540;9.774;2023-03-25T10:18:22;2.38;;;1.35;;
59950;SDS011;45812;53.540;9.774;2023-03-25T10:20:58;4.13;;;1.10;;
59950;SDS011;45812;53.540;9.774;2023-03-25T10:24:03;4.45;;;1.88;;
59950;SDS011;45812;53.540;9.774;2023-03-25T10:29:20;8.67;;;2.57;;
59950;SDS011;45812;53.540;9.774;2023-03-25T10:31:51;8.63;;;1.70;;
59950;SDS011;45812;53.540;9.774;2023-03-25T10:34:19;6.18;;;1.83;;
59950;SDS011;45812;53.540;9.774;2023-03-25T10:36:52;6.00;;;1.95;;
59950;SDS011;45812;53.540;9.774;2023-03-25T10:39:21;4.03;;;1.10;;
59950;SDS011;45812;53.540;9.774;2023-03-25T10:41:58;10.32;;;1.83;;
59950;SDS011;45812;53.540;9.774;2023-03-25T10:44:27;2.88;;;1.48;;
59950;SDS011;45812;53.540;9.774;2023-03-25T10:46:57;9.35;;;2.25;;
59950;SDS011;45812;53.540;9.774;2023-03-25T10:49:27;6.35;;;1.75;;
59950;SDS011;45812;53.540;9.774;2023-03-25T10:51:55;2.05;;;1.15;;
59950;SDS011;45812;53.540;9.774;2023-03-25T10:54:24;2.80;;;1.63;;
59950;SDS011;45812;53.540;9.774;2023-03-25T10:56:54;3.80;;;1.83;;
59950;SDS011;45812;53.540;9.774;2023-03-25T10:59:25;5.45;;;1.83;;
59950;SDS011;45812;53.540;9.774;2023-03-25T11:01:54;5.65;;;2.75;;
59950;SDS011;45812;53.540;9.774;2023-03-25T11:04:30;7.20;;;2.22;;
59950;SDS011;45812;53.540;9.774;2023-03-25T11:07:00;5.00;;;1.42;;
59950;SDS011;45812;53.540;9.774;2023-03-25T11:09:29;9.20;;;1.63;;
59950;SDS011;45812;53.540;9.774;2023-03-25T11:11:59;1.95;;;0.95;;
59950;SDS011;45812;53.540;9.774;2023-03-25T11:14:27;2.85;;;1.45;;
59950;SDS011;45812;53.540;9.774;2023-03-25T11:19:28;4.95;;;1.25;;
59950;SDS011;45812;53.540;9.774;2023-03-25T11:22:07;3.05;;;1.98;;
59950;SDS011;45812;53.540;9.774;2023-03-25T11:24:44;0.88;;;0.88;;
59950;SDS011;45812;53.540;9.774;2023-03-25T11:27:17;3.72;;;1.67;;
59950;SDS011;45812;53.540;9.774;2023-03-25T11:29:49;2.45;;;0.77;;
59950;SDS011;45812;53.540;9.774;2023-03-25T11:32:34;1.17;;;0.52;;
59950;SDS011;45812;53.540;9.774;2023-03-25T11:35:06;1.58;;;1.17;;
59950;SDS011;45812;53.540;9.774;2023-03-25T11:37:42;1.70;;;0.70;;
59950;SDS011;45812;53.540;9.774;2023-03-25T11:40:14;1.50;;;0.60;;
59950;SDS011;45812;53.540;9.774;2023-03-25T11:42:44;2.80;;;1.00;;
59950;SDS011;45812;53.540;9.774;2023-03-25T11:45:22;3.50;;;0.95;;
59950;SDS011;45812;53.540;9.774;2023-03-25T11:47:50;1.35;;;0.90;;
59950;SDS011;45812;53.540;9.774;2023-03-25T11:50:20;2.80;;;0.85;;
59950;SDS011;45812;53.540;9.774;2023-03-25T11:52:50;3.13;;;0.90;;
59950;SDS011;45812;53.540;9.774;2023-03-25T11:55:20;5.30;;;1.00;;
59950;SDS011;45812;53.540;9.774;2023-03-25T11:57:48;2.67;;;0.80;;
59950;SDS011;45812;53.540;9.774;2023-03-25T12:05:38;4.38;;;0.90;;
59950;SDS011;45812;53.540;9.774;2023-03-25T12:08:14;2.30;;;0.88;;
59950;SDS011;45812;53.540;9.774;2023-03-25T12:13:33;8.48;;;1.85;;
59950;SDS011;45812;53.540;9.774;2023-03-25T12:16:14;3.05;;;0.88;;
59950;SDS011;45812;53.540;9.774;2023-03-25T12:19:00;3.22;;;1.50;;
59950;SDS011;45812;53.540;9.774;2023-03-25T12:21:51;2.05;;;1.10;;
59950;SDS011;45812;53.540;9.774;2023-03-25T12:24:44;4.15;;;1.40;;
59950;SDS011;45812;53.540;9.774;2023-03-25T12:27:32;2.28;;;0.93;;
59950;SDS011;45812;53.540;9.774;2023-03-25T12:32:43;3.70;;;1.35;;
59950;SDS011;45812;53.540;9.774;2023-03-25T12:46:50;3.35;;;1.45;;
59950;SDS011;45812;53.540;9.774;2023-03-25T12:55:19;3.35;;;1.95;;
59950;SDS011;45812;53.540;9.774;2023-03-25T13:00:59;9.32;;;2.25;;
59950;SDS011;45812;53.540;9.774;2023-03-25T13:08:53;9.13;;;2.67;;
59950;SDS011;45812;53.540;9.774;2023-03-25T13:11:30;2.90;;;1.48;;
59950;SDS011;45812;53.540;9.774;2023-03-25T13:14:03;4.82;;;1.92;;
59950;SDS011;45812;53.540;9.774;2023-03-25T13:16:35;4.43;;;2.17;;
59950;SDS011;45812;53.540;9.774;2023-03-25T13:19:11;7.22;;;2.03;;
59950;SDS011;45812;53.540;9.774;2023-03-25T13:21:40;6.32;;;1.83;;
59950;SDS011;45812;53.540;9.774;2023-03-25T13:24:12;1.05;;;0.82;;
59950;SDS011;45812;53.540;9.774;2023-03-25T13:26:41;4.60;;;1.30;;
59950;SDS011;45812;53.540;9.774;2023-03-25T13:29:22;2.67;;;1.17;;
59950;SDS011;45812;53.540;9.774;2023-03-25T13:31:52;6.05;;;2.15;;
59950;SDS011;45812;53.540;9.774;2023-03-25T13:34:26;4.10;;;1.30;;
59950;SDS011;45812;53.540;9.774;2023-03-25T13:43:03;2.72;;;1.20;;
59950;SDS011;45812;53.540;9.774;2023-03-25T13:45:35;4.70;;;1.33;;
59950;SDS011;45812;53.540;9.774;2023-03-25T13:48:11;3.10;;;1.00;;
59950;SDS011;45812;53.540;9.774;2023-03-25T13:50:42;3.80;;;1.30;;
59950;SDS011;45812;53.540;9.774;2023-03-25T13:53:09;2.38;;;1.08;;
59950;SDS011;45812;53.540;9.774;2023-03-25T13:55:52;7.88;;;1.60;;
59950;SDS011;45812;53.540;9.774;2023-03-25T13:58:52;2.47;;;0.87;;
59950;SDS011;45812;53.540;9.774;2023-03-25T14:04:53;2.88;;;0.43;;
59950;SDS011;45812;53.540;9.774;2023-03-25T14:07:48;3.90;;;0.65;;
59950;SDS011;45812;53.540;9.774;2023-03-25T14:13:45;2.03;;;0.80;;
59950;SDS011;45812;53.540;9.774;2023-03-25T14:16:17;4.78;;;1.27;;
59950;SDS011;45812;53.540;9.774;2023-03-25T14:18:50;2.10;;;0.52;;
59950;SDS011;45812;53.540;9.774;2023-03-25T14:26:30;3.90;;;1.52;;
59950;SDS011;45812;53.540;9.774;2023-03-25T14:28:59;3.33;;;0.80;;
59950;SDS011;45812;53.540;9.774;2023-03-25T14:31:31;5.63;;;1.65;;
59950;SDS011;45812;53.540;9.774;2023-03-25T14:36:29;4.07;;;1.20;;
59950;SDS011;45812;53.540;9.774;2023-03-25T14:39:08;4.40;;;1.83;;
59950;SDS011;45812;53.540;9.774;2023-03-25T14:44:36;4.13;;;1.38;;
59950;SDS011;45812;53.540;9.774;2023-03-25T14:50:03;2.70;;;1.20;;
59950;SDS011;45812;53.540;9.774;2023-03-25T14:52:50;2.17;;;0.63;;
59950;SDS011;45812;53.540;9.774;2023-03-25T14:55:20;5.65;;;1.10;;
59950;SDS011;45812;53.540;9.774;2023-03-25T14:57:54;7.18;;;0.93;;
59950;SDS011;45812;53.540;9.774;2023-03-25T15:00:24;1.08;;;0.82;;
59950;SDS011;45812;53.540;9.774;2023-03-25T15:02:57;5.20;;;0.88;;
59950;SDS011;45812;53.540;9.774;2023-03-25T15:07:55;5.60;;;1.30;;
59950;SDS011;45812;53.540;9.774;2023-03-25T15:10:32;5.47;;;1.83;;
59950;SDS011;45812;53.540;9.774;2023-03-25T15:13:02;4.43;;;1.10;;
59950;SDS011;45812;53.540;9.774;2023-03-25T15:18:08;1.10;;;0.88;;
59950;SDS011;45812;53.540;9.774;2023-03-25T15:20:33;8.35;;;1.60;;
59950;SDS011;45812;53.540;9.774;2023-03-25T15:25:46;3.97;;;1.20;;
59950;SDS011;45812;53.540;9.774;2023-03-25T15:31:01;1.02;;;0.70;;
59950;SDS011;45812;53.540;9.774;2023-03-25T15:33:42;1.00;;;0.50;;
59950;SDS011;45812;53.540;9.774;2023-03-25T15:39:33;2.65;;;0.70;;
59950;SDS011;45812;53.540;9.774;2023-03-25T15:45:10;0.70;;;0.40;;
59950;SDS011;45812;53.540;9.774;2023-03-25T15:53:49;5.47;;;1.00;;
59950;SDS011;45812;53.540;9.774;2023-03-25T15:56:24;6.20;;;1.15;;
59950;SDS011;45812;53.540;9.774;2023-03-25T16:02:02;2.10;;;0.80;;
59950;SDS011;45812;53.540;9.774;2023-03-25T16:04:38;1.63;;;0.90;;
59950;SDS011;45812;53.540;9.774;2023-03-25T16:07:06;6.03;;;1.60;;
59950;SDS011;45812;53.540;9.774;2023-03-25T16:09:39;0.40;;;0.40;;
59950;SDS011;45812;53.540;9.774;2023-03-25T16:12:10;0.40;;;0.40;;
59950;SDS011;45812;53.540;9.774;2023-03-25T16:14:36;1.02;;;0.77;;
59950;SDS011;45812;53.540;9.774;2023-03-25T16:17:02;5.32;;;1.00;;
59950;SDS011;45812;53.540;9.774;2023-03-25T16:19:41;1.95;;;0.70;;
59950;SDS011;45812;53.540;9.774;2023-03-25T16:24:49;3.85;;;0.75;;
59950;SDS011;45812;53.540;9.774;2023-03-25T16:27:25;4.00;;;0.80;;
59950;SDS011;45812;53.540;9.774;2023-03-25T16:29:54;4.30;;;1.25;;
59950;SDS011;45812;53.540;9.774;2023-03-25T16:32:24;4.07;;;1.08;;
59950;SDS011;45812;53.540;9.774;2023-03-25T16:34:55;5.55;;;1.10;;
59950;SDS011;45812;53.540;9.774;2023-03-25T16:37:21;2.47;;;0.70;;
59950;SDS011;45812;53.540;9.774;2023-03-25T16:39:50;2.97;;;0.57;;
59950;SDS011;45812;53.540;9.774;2023-03-25T16:42:18;1.05;;;0.43;;
59950;SDS011;45812;53.540;9.774;2023-03-25T16:44:55;2.05;;;0.47;;
59950;SDS011;45812;53.540;9.774;2023-03-25T16:47:20;1.15;;;0.52;;
59950;SDS011;45812;53.540;9.774;2023-03-25T16:49:47;0.93;;;0.25;;
59950;SDS011;45812;53.540;9.774;2023-03-25T16:52:16;2.47;;;0.43;;
59950;SDS011;45812;53.540;9.774;2023-03-25T16:57:17;1.35;;;0.50;;
59950;SDS011;45812;53.540;9.774;2023-03-25T16:59:46;5.30;;;0.82;;
59950;SDS011;45812;53.540;9.774;2023-03-25T17:02:22;0.25;;;0.25;;
59950;SDS011;45812;53.540;9.774;2023-03-25T17:04:51;0.50;;;0.40;;
59950;SDS011;45812;53.540;9.774;2023-03-25T17:07:18;0.35;;;0.35;;
59950;SDS011;45812;53.540;9.774;2023-03-25T17:09:50;1.02;;;0.43;;
59950;SDS011;45812;53.540;9.774;2023-03-25T17:12:18;1.08;;;0.70;;
59950;SDS011;45812;53.540;9.774;2023-03-25T17:14:46;0.40;;;0.40;;